sensor_id;sensor_type;location;lat;lon;timestamp;temperature;humidity
10530;DHT22;5313;48.834;9.228;2023-11-19T00:01:08;8.10;99.90
10530;DHT22;5313;48.834;9.228;2023-11-19T00:03:33;8.10;99.90
10530;DHT22;5313;48.834;9.228;2023-11-19T00:06:00;8.10;99.90
10530;DHT22;5313;48.834;9.228;2023-11-19T00:08:26;8.20;99.90
10530;DHT22;5313;48.834;9.228;2023-11-19T00:10:52;8.20;99.90
10530;DHT22;5313;48.834;9.228;2023-11-19T00:13:17;8.20;99.90
10530;DHT22;5313;48.834;9.228;2023-11-19T00:15:43;8.20;99.90
10530;DHT22;5313;48.834;9.228;2023-11-19T00:18:10;8.20;99.90
10530;DHT22;5313;48.834;9.228;2023-11-19T00:20:36;8.20;99.90
10530;DHT22;5313;48.834;9.228;2023-11-19T00:23:01;8.20;99.90
10530;DHT22;5313;48.834;9.228;2023-11-19T00:25:27;8.20;99.90
10530;DHT22;5313;48.834;9.228;2023-11-19T00:27:53;8.20;99.90
10530;DHT22;5313;48.834;9.228;2023-11-19T00:30:19;8.20;99.90
10530;DHT22;5313;48.834;9.228;2023-11-19T00:32:44;8.20;99.90
10530;DHT22;5313;48.834;9.228;2023-11-19T00:35:11;8.20;99.90
10530;DHT22;5313;48.834;9.228;2023-11-19T00:37:37;8.20;99.90
10530;DHT22;5313;48.834;9.228;2023-11-19T00:40:03;8.30;99.90
10530;DHT22;5313;48.834;9.228;2023-11-19T00:42:30;8.30;99.90
10530;DHT22;5313;48.834;9.228;2023-11-19T00:44:56;8.30;99.90
10530;DHT22;5313;48.834;9.228;2023-11-19T00:47:22;8.40;99.90
10530;DHT22;5313;48.834;9.228;2023-11-19T00:49:48;8.40;99.90
10530;DHT22;5313;48.834;9.228;2023-11-19T00:52:17;8.40;99.90
10530;DHT22;5313;48.834;9.228;2023-11-19T00:54:43;8.40;99.90
10530;DHT22;5313;48.834;9.228;2023-11-19T00:57:08;8.50;99.90
10530;DHT22;5313;48.834;9.228;2023-11-19T00:59:34;8.50;99.90
10530;DHT22;5313;48.834;9.228;2023-11-19T01:01:59;8.60;99.90
10530;DHT22;5313;48.834;9.228;2023-11-19T01:04:29;8.60;99.90
10530;DHT22;5313;48.834;9.228;2023-11-19T01:06:55;8.60;99.90
10530;DHT22;5313;48.834;9.228;2023-11-19T01:09:20;8.70;99.90
10530;DHT22;5313;48.834;9.228;2023-11-19T01:11:46;8.70;99.90
10530;DHT22;5313;48.834;9.228;2023-11-19T01:14:11;8.70;99.90
10530;DHT22;5313;48.834;9.228;2023-11-19T01:16:37;8.70;99.90
10530;DHT22;5313;48.834;9.228;2023-11-19T01:19:02;8.80;99.90
10530;DHT22;5313;48.834;9.228;2023-11-19T01:21:30;8.70;99.90
10530;DHT22;5313;48.834;9.228;2023-11-19T01:23:57;8.80;99.90
10530;DHT22;5313;48.834;9.228;2023-11-19T01:26:22;8.80;99.90
10530;DHT22;5313;48.834;9.228;2023-11-19T01:28:48;8.80;99.90
10530;DHT22;5313;48.834;9.228;2023-11-19T01:31:16;8.90;99.90
10530;DHT22;5313;48.834;9.228;2023-11-19T01:33:42;8.90;99.90
10530;DHT22;5313;48.834;9.228;2023-11-19T01:36:08;9.00;99.90
10530;DHT22;5313;48.834;9.228;2023-11-19T01:38:34;9.10;99.90
10530;DHT22;5313;48.834;9.228;2023-11-19T01:41:00;9.10;99.90
10530;DHT22;5313;48.834;9.228;2023-11-19T01:43:39;9.10;99.90
10530;DHT22;5313;48.834;9.228;2023-11-19T01:46:07;9.10;99.90
10530;DHT22;5313;48.834;9.228;2023-11-19T01:48:37;9.10;99.90
10530;DHT22;5313;48.834;9.228;2023-11-19T01:51:07;9.10;99.90
10530;DHT22;5313;48.834;9.228;2023-11-19T01:53:35;9.10;99.90
10530;DHT22;5313;48.834;9.228;2023-11-19T01:56:02;9.20;99.90
10530;DHT22;5313;48.834;9.228;2023-11-19T01:58:27;9.20;99.90
10530;DHT22;5313;48.834;9.228;2023-11-19T02:00:55;9.20;99.90
10530;DHT22;5313;48.834;9.228;2023-11-19T02:03:21;9.20;99.90
10530;DHT22;5313;48.834;9.228;2023-11-19T02:05:48;9.20;99.90
10530;DHT22;5313;48.834;9.228;2023-11-19T02:08:14;9.20;99.90
10530;DHT22;5313;48.834;9.228;2023-11-19T02:10:40;9.20;99.90
10530;DHT22;5313;48.834;9.228;2023-11-19T02:13:05;9.30;99.90
10530;DHT22;5313;48.834;9.228;2023-11-19T02:15:32;9.20;99.90
10530;DHT22;5313;48.834;9.228;2023-11-19T02:18:17;9.20;99.90
10530;DHT22;5313;48.834;9.228;2023-11-19T02:20:44;9.20;99.90
10530;DHT22;5313;48.834;9.228;2023-11-19T02:23:09;9.20;99.90
10530;DHT22;5313;48.834;9.228;2023-11-19T02:25:35;9.00;99.90
10530;DHT22;5313;48.834;9.228;2023-11-19T02:28:03;8.90;99.90
10530;DHT22;5313;48.834;9.228;2023-11-19T02:30:29;8.90;99.90
10530;DHT22;5313;48.834;9.228;2023-11-19T02:32:55;8.90;99.90
10530;DHT22;5313;48.834;9.228;2023-11-19T02:35:23;8.90;99.90
10530;DHT22;5313;48.834;9.228;2023-11-19T02:37:48;8.90;99.90
10530;DHT22;5313;48.834;9.228;2023-11-19T02:40:14;8.90;99.90
10530;DHT22;5313;48.834;9.228;2023-11-19T02:42:40;8.90;99.90
10530;DHT22;5313;48.834;9.228;2023-11-19T02:45:05;8.90;99.90
10530;DHT22;5313;48.834;9.228;2023-11-19T02:47:33;8.90;99.90
10530;DHT22;5313;48.834;9.228;2023-11-19T02:49:59;8.80;99.90
10530;DHT22;5313;48.834;9.228;2023-11-19T02:52:25;8.80;99.90
10530;DHT22;5313;48.834;9.228;2023-11-19T02:54:51;8.80;99.90
10530;DHT22;5313;48.834;9.228;2023-11-19T02:57:17;8.90;99.90
10530;DHT22;5313;48.834;9.228;2023-11-19T02:59:44;8.90;99.90
10530;DHT22;5313;48.834;9.228;2023-11-19T03:02:10;8.90;99.90
10530;DHT22;5313;48.834;9.228;2023-11-19T03:04:39;8.90;99.90
10530;DHT22;5313;48.834;9.228;2023-11-19T03:07:06;8.90;99.90
10530;DHT22;5313;48.834;9.228;2023-11-19T03:09:32;8.90;99.90
10530;DHT22;5313;48.834;9.228;2023-11-19T03:11:59;8.90;99.90
10530;DHT22;5313;48.834;9.228;2023-11-19T03:14:25;8.90;99.90
10530;DHT22;5313;48.834;9.228;2023-11-19T03:16:51;8.90;99.90
10530;DHT22;5313;48.834;9.228;2023-11-19T03:19:16;8.90;99.90
10530;DHT22;5313;48.834;9.228;2023-11-19T03:21:42;9.00;99.90
10530;DHT22;5313;48.834;9.228;2023-11-19T03:24:07;9.00;99.90
10530;DHT22;5313;48.834;9.228;2023-11-19T03:26:34;9.00;99.90
10530;DHT22;5313;48.834;9.228;2023-11-19T03:28:59;9.00;99.90
10530;DHT22;5313;48.834;9.228;2023-11-19T03:31:25;9.00;99.90
10530;DHT22;5313;48.834;9.228;2023-11-19T03:33:51;9.00;99.90
10530;DHT22;5313;48.834;9.228;2023-11-19T03:36:16;9.00;99.90
10530;DHT22;5313;48.834;9.228;2023-11-19T03:38:42;9.00;99.90
10530;DHT22;5313;48.834;9.228;2023-11-19T03:41:14;9.00;99.90
10530;DHT22;5313;48.834;9.228;2023-11-19T03:43:40;9.10;99.90
10530;DHT22;5313;48.834;9.228;2023-11-19T03:46:20;9.10;99.90
10530;DHT22;5313;48.834;9.228;2023-11-19T03:48:49;9.10;99.90
10530;DHT22;5313;48.834;9.228;2023-11-19T03:51:15;9.10;99.90
10530;DHT22;5313;48.834;9.228;2023-11-19T03:53:44;9.10;99.90
10530;DHT22;5313;48.834;9.228;2023-11-19T03:56:11;9.10;99.90
10530;DHT22;5313;48.834;9.228;2023-11-19T03:58:37;9.10;99.90
10530;DHT22;5313;48.834;9.228;2023-11-19T04:01:04;9.30;99.90
10530;DHT22;5313;48.834;9.228;2023-11-19T04:03:29;9.40;99.90
10530;DHT22;5313;48.834;9.228;2023-11-19T04:05:55;9.60;99.90
10530;DHT22;5313;48.834;9.228;2023-11-19T04:08:21;9.70;99.90
10530;DHT22;5313;48.834;9.228;2023-11-19T04:10:47;9.80;99.90
10530;DHT22;5313;48.834;9.228;2023-11-19T04:13:13;9.90;99.90
10530;DHT22;5313;48.834;9.228;2023-11-19T04:15:39;9.90;99.90
10530;DHT22;5313;48.834;9.228;2023-11-19T04:18:04;10.00;99.90
10530;DHT22;5313;48.834;9.228;2023-11-19T04:20:30;10.00;99.90
10530;DHT22;5313;48.834;9.228;2023-11-19T04:22:57;10.10;99.90
10530;DHT22;5313;48.834;9.228;2023-11-19T04:25:22;10.10;99.90
10530;DHT22;5313;48.834;9.228;2023-11-19T04:27:49;9.80;99.90
10530;DHT22;5313;48.834;9.228;2023-11-19T04:30:15;9.60;99.90
10530;DHT22;5313;48.834;9.228;2023-11-19T04:32:40;9.50;99.90
10530;DHT22;5313;48.834;9.228;2023-11-19T04:35:06;9.70;99.90
10530;DHT22;5313;48.834;9.228;2023-11-19T04:37:32;9.80;99.90
10530;DHT22;5313;48.834;9.228;2023-11-19T04:39:58;10.10;99.90
10530;DHT22;5313;48.834;9.228;2023-11-19T04:42:25;10.10;99.90
10530;DHT22;5313;48.834;9.228;2023-11-19T04:44:50;10.20;99.90
10530;DHT22;5313;48.834;9.228;2023-11-19T04:47:16;10.20;99.90
10530;DHT22;5313;48.834;9.228;2023-11-19T04:49:41;10.20;99.90
10530;DHT22;5313;48.834;9.228;2023-11-19T04:52:10;10.10;99.90
10530;DHT22;5313;48.834;9.228;2023-11-19T04:54:43;10.10;99.90
10530;DHT22;5313;48.834;9.228;2023-11-19T04:57:09;10.10;99.90
10530;DHT22;5313;48.834;9.228;2023-11-19T04:59:38;10.20;99.90
10530;DHT22;5313;48.834;9.228;2023-11-19T05:02:04;10.30;99.90
10530;DHT22;5313;48.834;9.228;2023-11-19T05:04:30;10.30;99.90
10530;DHT22;5313;48.834;9.228;2023-11-19T05:06:56;9.90;99.90
10530;DHT22;5313;48.834;9.228;2023-11-19T05:09:21;10.50;99.90
10530;DHT22;5313;48.834;9.228;2023-11-19T05:11:47;10.50;99.90
10530;DHT22;5313;48.834;9.228;2023-11-19T05:14:13;10.60;99.90
10530;DHT22;5313;48.834;9.228;2023-11-19T05:16:40;10.70;99.90
10530;DHT22;5313;48.834;9.228;2023-11-19T05:19:08;10.80;99.90
10530;DHT22;5313;48.834;9.228;2023-11-19T05:21:34;10.80;99.90
10530;DHT22;5313;48.834;9.228;2023-11-19T05:24:01;10.90;99.90
10530;DHT22;5313;48.834;9.228;2023-11-19T05:26:30;11.10;99.90
10530;DHT22;5313;48.834;9.228;2023-11-19T05:28:55;11.10;99.90
10530;DHT22;5313;48.834;9.228;2023-11-19T05:31:21;11.10;99.90
10530;DHT22;5313;48.834;9.228;2023-11-19T05:33:46;11.10;99.90
10530;DHT22;5313;48.834;9.228;2023-11-19T05:36:12;11.20;99.90
10530;DHT22;5313;48.834;9.228;2023-11-19T05:38:39;11.20;99.90
10530;DHT22;5313;48.834;9.228;2023-11-19T05:41:04;11.20;99.90
10530;DHT22;5313;48.834;9.228;2023-11-19T05:43:30;11.30;99.90
10530;DHT22;5313;48.834;9.228;2023-11-19T05:45:56;11.20;99.90
10530;DHT22;5313;48.834;9.228;2023-11-19T05:48:22;11.30;99.90
10530;DHT22;5313;48.834;9.228;2023-11-19T05:50:48;11.40;99.90
10530;DHT22;5313;48.834;9.228;2023-11-19T05:53:15;11.50;99.90
10530;DHT22;5313;48.834;9.228;2023-11-19T05:55:41;11.50;99.90
10530;DHT22;5313;48.834;9.228;2023-11-19T05:58:20;11.50;99.90
10530;DHT22;5313;48.834;9.228;2023-11-19T06:00:47;11.50;99.90
10530;DHT22;5313;48.834;9.228;2023-11-19T06:03:13;11.40;99.90
10530;DHT22;5313;48.834;9.228;2023-11-19T06:05:38;11.50;99.90
10530;DHT22;5313;48.834;9.228;2023-11-19T06:08:04;11.60;99.90
10530;DHT22;5313;48.834;9.228;2023-11-19T06:10:32;11.50;99.90
10530;DHT22;5313;48.834;9.228;2023-11-19T06:12:58;11.50;99.90
10530;DHT22;5313;48.834;9.228;2023-11-19T06:15:27;11.50;99.90
10530;DHT22;5313;48.834;9.228;2023-11-19T06:17:53;11.50;99.90
10530;DHT22;5313;48.834;9.228;2023-11-19T06:20:20;11.50;99.90
10530;DHT22;5313;48.834;9.228;2023-11-19T06:22:46;11.50;99.90
10530;DHT22;5313;48.834;9.228;2023-11-19T06:25:12;11.50;99.90
10530;DHT22;5313;48.834;9.228;2023-11-19T06:27:42;11.50;99.90
10530;DHT22;5313;48.834;9.228;2023-11-19T06:30:08;11.50;99.90
10530;DHT22;5313;48.834;9.228;2023-11-19T06:32:35;11.50;99.90
10530;DHT22;5313;48.834;9.228;2023-11-19T06:35:00;11.60;99.90
10530;DHT22;5313;48.834;9.228;2023-11-19T06:37:26;11.60;99.90
10530;DHT22;5313;48.834;9.228;2023-11-19T06:39:52;11.60;99.90
10530;DHT22;5313;48.834;9.228;2023-11-19T06:42:18;11.60;99.90
10530;DHT22;5313;48.834;9.228;2023-11-19T06:44:43;11.60;99.90
10530;DHT22;5313;48.834;9.228;2023-11-19T06:47:09;11.60;99.90
10530;DHT22;5313;48.834;9.228;2023-11-19T06:49:34;11.70;99.90
10530;DHT22;5313;48.834;9.228;2023-11-19T06:52:00;11.70;99.90
10530;DHT22;5313;48.834;9.228;2023-11-19T06:54:25;11.70;99.90
10530;DHT22;5313;48.834;9.228;2023-11-19T06:56:51;11.70;99.90
10530;DHT22;5313;48.834;9.228;2023-11-19T06:59:16;11.70;99.90
10530;DHT22;5313;48.834;9.228;2023-11-19T07:01:42;11.80;99.90
10530;DHT22;5313;48.834;9.228;2023-11-19T07:04:11;11.80;99.90
10530;DHT22;5313;48.834;9.228;2023-11-19T07:06:38;11.80;99.90
10530;DHT22;5313;48.834;9.228;2023-11-19T07:09:04;11.80;99.90
10530;DHT22;5313;48.834;9.228;2023-11-19T07:11:43;11.80;99.90
10530;DHT22;5313;48.834;9.228;2023-11-19T07:14:11;11.70;99.90
10530;DHT22;5313;48.834;9.228;2023-11-19T07:16:37;11.80;99.90
10530;DHT22;5313;48.834;9.228;2023-11-19T07:19:04;11.80;99.90
10530;DHT22;5313;48.834;9.228;2023-11-19T07:21:31;11.80;99.90
10530;DHT22;5313;48.834;9.228;2023-11-19T07:23:56;11.80;99.90
10530;DHT22;5313;48.834;9.228;2023-11-19T07:26:22;11.80;99.90
10530;DHT22;5313;48.834;9.228;2023-11-19T07:28:51;11.80;99.90
10530;DHT22;5313;48.834;9.228;2023-11-19T07:31:17;11.80;99.90
10530;DHT22;5313;48.834;9.228;2023-11-19T07:33:45;11.80;99.90
10530;DHT22;5313;48.834;9.228;2023-11-19T07:36:11;11.90;99.90
10530;DHT22;5313;48.834;9.228;2023-11-19T07:38:37;12.00;99.90
10530;DHT22;5313;48.834;9.228;2023-11-19T07:41:04;11.90;99.90
10530;DHT22;5313;48.834;9.228;2023-11-19T07:43:30;12.00;99.90
10530;DHT22;5313;48.834;9.228;2023-11-19T07:45:56;12.00;99.90
10530;DHT22;5313;48.834;9.228;2023-11-19T07:48:21;12.10;99.90
10530;DHT22;5313;48.834;9.228;2023-11-19T07:50:49;12.10;99.90
10530;DHT22;5313;48.834;9.228;2023-11-19T07:53:19;12.10;99.90
10530;DHT22;5313;48.834;9.228;2023-11-19T07:55:44;12.10;99.90
10530;DHT22;5313;48.834;9.228;2023-11-19T07:58:13;12.10;99.90
10530;DHT22;5313;48.834;9.228;2023-11-19T08:00:38;12.20;99.90
10530;DHT22;5313;48.834;9.228;2023-11-19T08:03:05;12.20;99.90
10530;DHT22;5313;48.834;9.228;2023-11-19T08:05:31;12.20;99.90
10530;DHT22;5313;48.834;9.228;2023-11-19T08:07:57;12.20;99.90
10530;DHT22;5313;48.834;9.228;2023-11-19T08:10:23;12.20;99.90
10530;DHT22;5313;48.834;9.228;2023-11-19T08:12:49;12.20;99.90
10530;DHT22;5313;48.834;9.228;2023-11-19T08:15:15;12.30;99.90
10530;DHT22;5313;48.834;9.228;2023-11-19T08:17:41;12.30;99.90
10530;DHT22;5313;48.834;9.228;2023-11-19T08:20:08;12.40;99.90
10530;DHT22;5313;48.834;9.228;2023-11-19T08:22:36;12.40;99.90
10530;DHT22;5313;48.834;9.228;2023-11-19T08:25:03;12.40;99.90
10530;DHT22;5313;48.834;9.228;2023-11-19T08:27:29;12.40;99.90
10530;DHT22;5313;48.834;9.228;2023-11-19T08:29:55;12.40;99.90
10530;DHT22;5313;48.834;9.228;2023-11-19T08:32:27;12.60;99.90
10530;DHT22;5313;48.834;9.228;2023-11-19T08:34:53;12.70;99.90
10530;DHT22;5313;48.834;9.228;2023-11-19T08:37:18;12.70;99.90
10530;DHT22;5313;48.834;9.228;2023-11-19T08:39:47;12.70;99.90
10530;DHT22;5313;48.834;9.228;2023-11-19T08:42:12;12.70;99.90
10530;DHT22;5313;48.834;9.228;2023-11-19T08:44:38;12.70;99.90
10530;DHT22;5313;48.834;9.228;2023-11-19T08:47:04;12.70;99.90
10530;DHT22;5313;48.834;9.228;2023-11-19T08:49:29;12.70;99.90
10530;DHT22;5313;48.834;9.228;2023-11-19T08:51:55;12.70;99.90
10530;DHT22;5313;48.834;9.228;2023-11-19T08:54:21;12.70;99.90
10530;DHT22;5313;48.834;9.228;2023-11-19T08:56:48;12.80;99.90
10530;DHT22;5313;48.834;9.228;2023-11-19T08:59:13;12.90;99.90
10530;DHT22;5313;48.834;9.228;2023-11-19T09:01:40;13.00;99.90
10530;DHT22;5313;48.834;9.228;2023-11-19T09:04:06;13.10;99.90
10530;DHT22;5313;48.834;9.228;2023-11-19T09:06:32;13.10;99.90
10530;DHT22;5313;48.834;9.228;2023-11-19T09:08:57;13.20;99.90
10530;DHT22;5313;48.834;9.228;2023-11-19T09:11:27;13.30;99.90
10530;DHT22;5313;48.834;9.228;2023-11-19T09:13:52;13.70;99.90
10530;DHT22;5313;48.834;9.228;2023-11-19T09:16:18;13.80;99.90
10530;DHT22;5313;48.834;9.228;2023-11-19T09:18:43;14.10;99.90
10530;DHT22;5313;48.834;9.228;2023-11-19T09:21:11;14.30;99.90
10530;DHT22;5313;48.834;9.228;2023-11-19T09:23:36;14.20;99.90
10530;DHT22;5313;48.834;9.228;2023-11-19T09:26:05;14.10;99.90
10530;DHT22;5313;48.834;9.228;2023-11-19T09:28:31;13.90;99.90
10530;DHT22;5313;48.834;9.228;2023-11-19T09:30:57;13.90;99.90
10530;DHT22;5313;48.834;9.228;2023-11-19T09:33:23;13.80;99.90
10530;DHT22;5313;48.834;9.228;2023-11-19T09:35:48;13.80;99.90
10530;DHT22;5313;48.834;9.228;2023-11-19T09:38:15;13.80;99.90
10530;DHT22;5313;48.834;9.228;2023-11-19T09:40:40;13.80;99.90
10530;DHT22;5313;48.834;9.228;2023-11-19T09:43:07;13.70;99.90
10530;DHT22;5313;48.834;9.228;2023-11-19T09:45:47;13.70;99.90
10530;DHT22;5313;48.834;9.228;2023-11-19T09:48:16;13.70;99.90
10530;DHT22;5313;48.834;9.228;2023-11-19T09:50:42;13.90;99.90
10530;DHT22;5313;48.834;9.228;2023-11-19T09:53:08;14.10;99.90
10530;DHT22;5313;48.834;9.228;2023-11-19T09:55:33;14.40;99.90
10530;DHT22;5313;48.834;9.228;2023-11-19T09:58:00;14.50;99.90
10530;DHT22;5313;48.834;9.228;2023-11-19T10:00:27;14.60;99.90
10530;DHT22;5313;48.834;9.228;2023-11-19T10:02:54;14.70;99.90
10530;DHT22;5313;48.834;9.228;2023-11-19T10:05:20;14.80;99.90
10530;DHT22;5313;48.834;9.228;2023-11-19T10:07:46;14.90;99.90
10530;DHT22;5313;48.834;9.228;2023-11-19T10:10:12;14.80;99.90
10530;DHT22;5313;48.834;9.228;2023-11-19T10:12:47;14.80;99.90
10530;DHT22;5313;48.834;9.228;2023-11-19T10:15:21;14.70;99.90
10530;DHT22;5313;48.834;9.228;2023-11-19T10:17:47;14.70;99.90
10530;DHT22;5313;48.834;9.228;2023-11-19T10:20:13;14.80;99.90
10530;DHT22;5313;48.834;9.228;2023-11-19T10:22:39;14.80;99.90
10530;DHT22;5313;48.834;9.228;2023-11-19T10:25:15;14.80;99.90
10530;DHT22;5313;48.834;9.228;2023-11-19T10:27:46;14.90;99.90
10530;DHT22;5313;48.834;9.228;2023-11-19T10:30:12;14.90;99.90
10530;DHT22;5313;48.834;9.228;2023-11-19T10:32:37;14.90;99.90
10530;DHT22;5313;48.834;9.228;2023-11-19T10:35:06;15.00;99.90
10530;DHT22;5313;48.834;9.228;2023-11-19T10:37:32;15.00;99.90
10530;DHT22;5313;48.834;9.228;2023-11-19T10:40:00;15.00;99.90
10530;DHT22;5313;48.834;9.228;2023-11-19T10:42:26;15.00;99.90
10530;DHT22;5313;48.834;9.228;2023-11-19T10:44:51;15.10;99.90
10530;DHT22;5313;48.834;9.228;2023-11-19T10:47:19;15.10;99.90
10530;DHT22;5313;48.834;9.228;2023-11-19T10:49:45;15.30;99.90
10530;DHT22;5313;48.834;9.228;2023-11-19T10:52:19;16.10;99.90
10530;DHT22;5313;48.834;9.228;2023-11-19T10:54:49;16.40;99.90
10530;DHT22;5313;48.834;9.228;2023-11-19T10:57:20;16.50;99.90
10530;DHT22;5313;48.834;9.228;2023-11-19T10:59:46;16.50;99.90
10530;DHT22;5313;48.834;9.228;2023-11-19T11:02:16;16.50;99.90
10530;DHT22;5313;48.834;9.228;2023-11-19T11:04:45;16.50;99.90
10530;DHT22;5313;48.834;9.228;2023-11-19T11:07:14;16.40;99.90
10530;DHT22;5313;48.834;9.228;2023-11-19T11:09:41;16.30;99.90
10530;DHT22;5313;48.834;9.228;2023-11-19T11:12:09;16.20;99.90
10530;DHT22;5313;48.834;9.228;2023-11-19T11:14:37;16.00;99.90
10530;DHT22;5313;48.834;9.228;2023-11-19T11:17:06;16.00;99.90
10530;DHT22;5313;48.834;9.228;2023-11-19T11:19:34;15.90;99.90
10530;DHT22;5313;48.834;9.228;2023-11-19T11:22:00;15.90;99.90
10530;DHT22;5313;48.834;9.228;2023-11-19T11:24:58;15.80;99.90
10530;DHT22;5313;48.834;9.228;2023-11-19T11:27:48;15.80;99.90
10530;DHT22;5313;48.834;9.228;2023-11-19T11:30:41;15.70;99.90
10530;DHT22;5313;48.834;9.228;2023-11-19T11:33:28;15.70;99.90
10530;DHT22;5313;48.834;9.228;2023-11-19T11:38:36;15.60;99.90
10530;DHT22;5313;48.834;9.228;2023-11-19T11:41:23;15.70;99.90
10530;DHT22;5313;48.834;9.228;2023-11-19T11:43:52;16.00;99.90
10530;DHT22;5313;48.834;9.228;2023-11-19T11:49:06;17.30;99.90
10530;DHT22;5313;48.834;9.228;2023-11-19T11:57:11;16.50;99.90
10530;DHT22;5313;48.834;9.228;2023-11-19T12:02:11;15.80;99.90
10530;DHT22;5313;48.834;9.228;2023-11-19T12:04:37;15.70;99.90
10530;DHT22;5313;48.834;9.228;2023-11-19T12:07:07;16.20;99.90
10530;DHT22;5313;48.834;9.228;2023-11-19T12:09:33;16.50;99.90
10530;DHT22;5313;48.834;9.228;2023-11-19T12:20:04;17.10;99.90
10530;DHT22;5313;48.834;9.228;2023-11-19T12:22:31;17.10;99.90
10530;DHT22;5313;48.834;9.228;2023-11-19T12:24:57;17.80;99.90
10530;DHT22;5313;48.834;9.228;2023-11-19T12:27:23;18.50;99.90
10530;DHT22;5313;48.834;9.228;2023-11-19T12:29:49;19.00;99.90
10530;DHT22;5313;48.834;9.228;2023-11-19T12:32:15;19.30;99.90
10530;DHT22;5313;48.834;9.228;2023-11-19T12:34:40;19.40;99.90
10530;DHT22;5313;48.834;9.228;2023-11-19T12:37:06;19.80;99.90
10530;DHT22;5313;48.834;9.228;2023-11-19T12:39:32;20.00;99.90
10530;DHT22;5313;48.834;9.228;2023-11-19T12:41:57;20.20;99.90
10530;DHT22;5313;48.834;9.228;2023-11-19T12:44:26;19.70;99.90
10530;DHT22;5313;48.834;9.228;2023-11-19T12:47:05;19.30;99.90
10530;DHT22;5313;48.834;9.228;2023-11-19T12:49:36;19.00;99.90
10530;DHT22;5313;48.834;9.228;2023-11-19T12:52:02;18.70;99.90
10530;DHT22;5313;48.834;9.228;2023-11-19T12:54:36;18.80;99.90
10530;DHT22;5313;48.834;9.228;2023-11-19T12:57:03;19.00;99.90
10530;DHT22;5313;48.834;9.228;2023-11-19T12:59:30;18.70;99.90
10530;DHT22;5313;48.834;9.228;2023-11-19T13:01:57;18.70;99.90
10530;DHT22;5313;48.834;9.228;2023-11-19T13:04:23;18.80;99.90
10530;DHT22;5313;48.834;9.228;2023-11-19T13:06:50;18.70;99.90
10530;DHT22;5313;48.834;9.228;2023-11-19T13:09:26;18.50;99.90
10530;DHT22;5313;48.834;9.228;2023-11-19T13:11:52;18.50;99.90
10530;DHT22;5313;48.834;9.228;2023-11-19T13:14:19;18.50;99.90
10530;DHT22;5313;48.834;9.228;2023-11-19T13:16:45;18.30;99.90
10530;DHT22;5313;48.834;9.228;2023-11-19T13:19:14;18.10;99.90
10530;DHT22;5313;48.834;9.228;2023-11-19T13:21:39;18.20;99.90
10530;DHT22;5313;48.834;9.228;2023-11-19T13:24:06;18.10;99.90
10530;DHT22;5313;48.834;9.228;2023-11-19T13:26:31;17.90;99.90
10530;DHT22;5313;48.834;9.228;2023-11-19T13:28:57;17.60;99.90
10530;DHT22;5313;48.834;9.228;2023-11-19T13:31:23;17.20;99.90
10530;DHT22;5313;48.834;9.228;2023-11-19T13:33:48;16.80;99.90
10530;DHT22;5313;48.834;9.228;2023-11-19T13:36:14;16.70;99.90
10530;DHT22;5313;48.834;9.228;2023-11-19T13:38:39;16.70;99.90
10530;DHT22;5313;48.834;9.228;2023-11-19T13:41:07;16.50;99.90
10530;DHT22;5313;48.834;9.228;2023-11-19T13:43:35;16.40;99.90
10530;DHT22;5313;48.834;9.228;2023-11-19T13:46:00;16.30;99.90
10530;DHT22;5313;48.834;9.228;2023-11-19T13:48:26;16.30;99.90
10530;DHT22;5313;48.834;9.228;2023-11-19T13:50:54;16.30;99.90
10530;DHT22;5313;48.834;9.228;2023-11-19T13:53:20;16.30;99.90
10530;DHT22;5313;48.834;9.228;2023-11-19T13:55:46;16.30;99.90
10530;DHT22;5313;48.834;9.228;2023-11-19T13:58:11;16.30;99.90
10530;DHT22;5313;48.834;9.228;2023-11-19T14:00:37;16.40;99.90
10530;DHT22;5313;48.834;9.228;2023-11-19T14:03:03;16.40;99.90
10530;DHT22;5313;48.834;9.228;2023-11-19T14:05:28;16.40;99.90
10530;DHT22;5313;48.834;9.228;2023-11-19T14:07:54;16.40;99.90
10530;DHT22;5313;48.834;9.228;2023-11-19T14:10:22;16.40;99.90
10530;DHT22;5313;48.834;9.228;2023-11-19T14:12:48;16.40;99.90
10530;DHT22;5313;48.834;9.228;2023-11-19T14:15:15;16.30;99.90
10530;DHT22;5313;48.834;9.228;2023-11-19T14:17:43;16.30;99.90
10530;DHT22;5313;48.834;9.228;2023-11-19T14:20:09;16.20;99.90
10530;DHT22;5313;48.834;9.228;2023-11-19T14:22:45;16.10;99.90
10530;DHT22;5313;48.834;9.228;2023-11-19T14:25:15;16.00;99.90
10530;DHT22;5313;48.834;9.228;2023-11-19T14:27:42;16.00;99.90
10530;DHT22;5313;48.834;9.228;2023-11-19T14:30:10;15.90;99.90
10530;DHT22;5313;48.834;9.228;2023-11-19T14:32:40;15.90;99.90
10530;DHT22;5313;48.834;9.228;2023-11-19T14:35:08;15.90;99.90
10530;DHT22;5313;48.834;9.228;2023-11-19T14:37:34;15.70;99.90
10530;DHT22;5313;48.834;9.228;2023-11-19T14:40:00;15.70;99.90
10530;DHT22;5313;48.834;9.228;2023-11-19T14:42:26;15.60;99.90
10530;DHT22;5313;48.834;9.228;2023-11-19T14:44:52;15.60;99.90
10530;DHT22;5313;48.834;9.228;2023-11-19T14:47:21;15.60;99.90
10530;DHT22;5313;48.834;9.228;2023-11-19T14:49:46;15.50;99.90
10530;DHT22;5313;48.834;9.228;2023-11-19T14:52:12;15.50;99.90
10530;DHT22;5313;48.834;9.228;2023-11-19T14:54:38;15.30;99.90
10530;DHT22;5313;48.834;9.228;2023-11-19T14:57:04;15.30;99.90
10530;DHT22;5313;48.834;9.228;2023-11-19T14:59:30;15.20;99.90
10530;DHT22;5313;48.834;9.228;2023-11-19T15:01:55;16.10;99.90
10530;DHT22;5313;48.834;9.228;2023-11-19T15:04:21;15.20;99.90
10530;DHT22;5313;48.834;9.228;2023-11-19T15:06:46;15.20;99.90
10530;DHT22;5313;48.834;9.228;2023-11-19T15:09:12;15.20;99.90
10530;DHT22;5313;48.834;9.228;2023-11-19T15:11:45;15.10;99.90
10530;DHT22;5313;48.834;9.228;2023-11-19T15:14:12;15.00;99.90
10530;DHT22;5313;48.834;9.228;2023-11-19T15:16:40;15.00;99.90
10530;DHT22;5313;48.834;9.228;2023-11-19T15:19:06;15.00;99.90
10530;DHT22;5313;48.834;9.228;2023-11-19T15:21:33;14.90;99.90
10530;DHT22;5313;48.834;9.228;2023-11-19T15:23:59;14.90;99.90
10530;DHT22;5313;48.834;9.228;2023-11-19T15:26:24;14.80;99.90
10530;DHT22;5313;48.834;9.228;2023-11-19T15:28:50;14.80;99.90
10530;DHT22;5313;48.834;9.228;2023-11-19T15:31:16;14.70;99.90
10530;DHT22;5313;48.834;9.228;2023-11-19T15:33:42;14.70;99.90
10530;DHT22;5313;48.834;9.228;2023-11-19T15:36:08;14.70;99.90
10530;DHT22;5313;48.834;9.228;2023-11-19T15:38:34;14.70;99.90
10530;DHT22;5313;48.834;9.228;2023-11-19T15:41:00;14.70;99.90
10530;DHT22;5313;48.834;9.228;2023-11-19T15:43:25;14.60;99.90
10530;DHT22;5313;48.834;9.228;2023-11-19T15:45:51;14.50;99.90
10530;DHT22;5313;48.834;9.228;2023-11-19T15:48:16;14.50;99.90
10530;DHT22;5313;48.834;9.228;2023-11-19T15:50:43;14.40;99.90
10530;DHT22;5313;48.834;9.228;2023-11-19T15:53:10;14.40;99.90
10530;DHT22;5313;48.834;9.228;2023-11-19T15:55:36;14.30;99.90
10530;DHT22;5313;48.834;9.228;2023-11-19T15:58:01;14.30;99.90
10530;DHT22;5313;48.834;9.228;2023-11-19T16:00:27;14.20;99.90
10530;DHT22;5313;48.834;9.228;2023-11-19T16:02:52;14.10;99.90
10530;DHT22;5313;48.834;9.228;2023-11-19T16:05:19;14.10;99.90
10530;DHT22;5313;48.834;9.228;2023-11-19T16:07:45;14.00;99.90
10530;DHT22;5313;48.834;9.228;2023-11-19T16:10:11;14.00;99.90